TimeCST,TemperatureF,Dew PointF,Humidity,Sea Level PressureIn,VisibilityMPH,Wind Direction,Wind SpeedMPH,Gust SpeedMPH,PrecipitationIn,Events,Conditions,WindDirDegrees,DateUTC
12:53 AM,63.0,48.9,60,30.09,-9999.0,Variable,5.8,-,N/A,,Unknown,0,2013-01-08 06:53:00
1:53 AM,62.1,50.0,65,30.10,-9999.0,East,4.6,-,N/A,,Unknown,90,2013-01-08 07:53:00
2:53 AM,64.9,50.0,58,30.08,-9999.0,Variable,4.6,-,N/A,,Unknown,0,2013-01-08 08:53:00
3:53 AM,62.1,51.1,67,30.09,-9999.0,Variable,3.5,-,N/A,,Unknown,0,2013-01-08 09:53:00
4:53 AM,60.1,51.1,72,30.07,-9999.0,East,4.6,-,N/A,,Unknown,80,2013-01-08 10:53:00
5:53 AM,62.1,51.1,67,30.08,-9999.0,Variable,3.5,-,N/A,,Unknown,0,2013-01-08 11:53:00
6:53 AM,63.0,52.0,67,30.09,-9999.0,Variable,4.6,-,N/A,,Unknown,0,2013-01-08 12:53:00
7:53 AM,66.0,52.0,60,30.12,-9999.0,East,4.6,-,N/A,,Unknown,80,2013-01-08 13:53:00
8:53 AM,69.1,55.0,61,30.12,-9999.0,ESE,5.8,-,N/A,,Unknown,110,2013-01-08 14:53:00
9:53 AM,66.9,57.0,70,30.17,-9999.0,East,4.6,-,N/A,,Unknown,80,2013-01-08 15:53:00
10:53 AM,66.9,59.0,76,30.13,-9999.0,East,5.8,-,0.05,,Unknown,90,2013-01-08 16:53:00
11:53 AM,69.1,60.1,73,30.09,-9999.0,Variable,4.6,-,0.02,,Unknown,0,2013-01-08 17:53:00
12:53 PM,66.9,61.0,81,30.07,-9999.0,Variable,3.5,-,0.11,,Unknown,0,2013-01-08 18:53:00
1:53 PM,66.0,60.1,81,30.04,-9999.0,Variable,4.6,-,0.25,,Unknown,0,2013-01-08 19:53:00
2:53 PM,66.9,59.0,76,30.03,-9999.0,Variable,4.6,-,0.04,,Unknown,0,2013-01-08 20:53:00
3:53 PM,64.0,57.9,80,30.02,-9999.0,Variable,4.6,-,0.19,,Unknown,0,2013-01-08 21:53:00
4:53 PM,64.0,59.0,84,30.04,-9999.0,Variable,5.8,-,0.25,,Unknown,0,2013-01-08 22:53:00
5:53 PM,64.9,59.0,81,30.04,-9999.0,Variable,4.6,-,0.19,,Unknown,0,2013-01-08 23:53:00
6:53 PM,64.9,59.0,81,30.04,-9999.0,Variable,3.5,-,0.20,,Unknown,0,2013-01-09 00:53:00
7:53 PM,66.9,60.1,79,30.06,-9999.0,Variable,3.5,-,0.42,,Unknown,0,2013-01-09 01:53:00
8:53 PM,73.0,60.1,64,30.08,-9999.0,North,5.8,-,0.67,,Unknown,10,2013-01-09 02:53:00
9:53 PM,69.1,60.1,73,30.10,-9999.0,Variable,3.5,-,0.94,,Unknown,0,2013-01-09 03:53:00
10:53 PM,72.0,60.1,66,30.11,-9999.0,North,8.1,-,0.38,,Unknown,350,2013-01-09 04:53:00
11:53 PM,69.1,60.1,73,30.11,-9999.0,Variable,3.5,-,0.14,,Unknown,0,2013-01-09 05:53:00